Time;durP1;ratioP1;P1;durP2;ratioP2;P2;SDS_P1;SDS_P2;PMS_P1;PMS_P2;Temp;Humidity;BMP_temperature;BMP_pressure;BME280_temperature;BME280_humidity;BME280_pressure;Samples;Min_cycle;Max_cycle;Signal;HPM_P1;HPM_P2
2023/08/09 00:01:28;;;;;;;0.45;0.32;;;17.30;81.40;;;;;;5054308;28;20036;-67
2023/08/09 00:03:54;;;;;;;0.75;0.70;;;17.30;81.30;;;;;;5040499;28;20061;-68
2023/08/09 00:06:19;;;;;;;0.40;0.40;;;17.20;81.30;;;;;;5039892;28;20054;-67
2023/08/09 00:08:45;;;;;;;0.88;0.50;;;17.10;81.50;;;;;;5052391;28;20473;-63
2023/08/09 00:11:11;;;;;;;0.45;0.45;;;17.10;81.60;;;;;;5047613;28;20025;-67
2023/08/09 00:13:37;;;;;;;0.40;0.35;;;17.10;81.60;;;;;;5054576;28;20476;-67
2023/08/09 00:16:03;;;;;;;0.55;0.55;;;17.10;81.50;;;;;;5048676;28;20120;-67
2023/08/09 00:18:28;;;;;;;0.50;0.50;;;17.20;81.50;;;;;;5043933;28;20029;-64
2023/08/09 00:20:54;;;;;;;0.75;0.75;;;17.20;81.40;;;;;;5047029;28;20032;-63
2023/08/09 00:23:21;;;;;;;0.60;0.50;;;17.20;81.30;;;;;;5043555;28;20441;-68
2023/08/09 00:25:47;;;;;;;0.50;0.50;;;17.20;81.20;;;;;;5046467;28;20025;-63
2023/08/09 00:28:12;;;;;;;0.82;0.65;;;17.20;81.20;;;;;;5035051;28;20059;-67
2023/08/09 00:30:38;;;;;;;0.80;0.60;;;17.20;81.20;;;;;;5047632;28;20029;-64
2023/08/09 00:33:04;;;;;;;0.35;0.35;;;17.10;81.10;;;;;;5043075;28;20421;-67
2023/08/09 00:35:31;;;;;;;0.50;0.40;;;17.10;81.10;;;;;;5049249;28;20423;-63
2023/08/09 00:37:56;;;;;;;0.77;0.77;;;17.10;81.20;;;;;;5043732;28;20472;-67
2023/08/09 00:40:22;;;;;;;0.60;0.60;;;17.00;81.10;;;;;;5046393;28;20063;-67
2023/08/09 00:42:48;;;;;;;0.40;0.40;;;17.00;81.10;;;;;;5045138;28;20048;-63
2023/08/09 00:45:13;;;;;;;0.45;0.45;;;17.00;81.10;;;;;;5042457;28;20033;-67
2023/08/09 00:47:39;;;;;;;0.60;0.50;;;16.90;81.10;;;;;;5050058;28;20029;-64
2023/08/09 00:50:06;;;;;;;1.05;0.40;;;16.90;81.20;;;;;;5052112;28;20498;-63
2023/08/09 00:52:32;;;;;;;1.05;0.57;;;16.80;81.20;;;;;;5052273;28;20025;-68
2023/08/09 00:55:00;;;;;;;0.50;0.50;;;16.80;81.40;;;;;;5048449;28;20452;-63
2023/08/09 00:57:26;;;;;;;0.68;0.50;;;16.80;81.40;;;;;;5035826;28;20060;-67
2023/08/09 00:59:51;;;;;;;0.70;0.70;;;16.70;81.40;;;;;;5042286;28;20037;-67
2023/08/09 01:02:17;;;;;;;0.93;0.65;;;16.70;81.30;;;;;;5037828;28;20030;-67
2023/08/09 01:04:43;;;;;;;0.88;0.85;;;16.70;81.30;;;;;;5042778;28;20040;-67
2023/08/09 01:07:39;;;;;;;0.57;0.57;;;16.70;81.70;;;;;;5037984;28;20054;-63
2023/08/09 01:10:22;;;;;;;0.73;0.52;;;16.70;81.00;;;;;;5043574;28;20370;-63
2023/08/09 01:12:52;;;;;;;1.00;0.40;;;16.60;81.00;;;;;;5039513;28;20052;-63
2023/08/09 01:15:19;;;;;;;2.38;0.70;;;16.60;81.10;;;;;;5040690;28;20094;-68
2023/08/09 01:17:49;;;;;;;0.73;0.60;;;16.60;81.10;;;;;;5041034;28;20029;-63
2023/08/09 01:20:16;;;;;;;0.90;0.57;;;16.60;81.10;;;;;;5047940;28;20112;-63
2023/08/09 01:22:56;;;;;;;1.25;0.68;;;16.60;81.20;;;;;;5044237;28;20037;-67
2023/08/09 01:25:22;;;;;;;3.83;1.13;;;16.60;81.10;;;;;;5039120;28;20037;-64
2023/08/09 01:27:48;;;;;;;1.42;0.80;;;16.60;81.30;;;;;;5041509;28;20044;-63
2023/08/09 01:30:15;;;;;;;1.25;0.93;;;16.70;81.40;;;;;;5046514;28;20040;-63
2023/08/09 01:32:41;;;;;;;0.95;0.88;;;16.70;81.50;;;;;;5039524;28;20047;-64
2023/08/09 01:35:07;;;;;;;0.93;0.80;;;16.70;81.70;;;;;;5042810;28;20029;-63
2023/08/09 01:38:03;;;;;;;1.30;0.80;;;16.70;81.80;;;;;;5040165;28;20041;-64
2023/08/09 01:40:30;;;;;;;1.52;1.08;;;16.70;82.00;;;;;;5040790;28;20369;-67
2023/08/09 01:42:56;;;;;;;1.30;1.00;;;16.60;82.20;;;;;;5037458;28;20388;-67
2023/08/09 01:45:22;;;;;;;2.15;1.70;;;16.60;82.20;;;;;;5051584;28;20557;-68
2023/08/09 01:47:48;;;;;;;2.20;1.45;;;16.70;82.20;;;;;;5044039;28;20365;-63
2023/08/09 01:50:23;;;;;;;1.63;1.23;;;16.70;82.20;;;;;;5045890;28;20021;-68
2023/08/09 01:52:49;;;;;;;1.67;1.30;;;16.70;82.50;;;;;;5050233;28;20092;-63
2023/08/09 01:55:18;;;;;;;3.38;2.17;;;16.60;82.60;;;;;;5051353;28;20029;-68
2023/08/09 01:57:47;;;;;;;3.53;1.95;;;16.60;82.80;;;;;;5044242;28;20132;-68
2023/08/09 02:00:18;;;;;;;2.63;1.73;;;16.60;83.00;;;;;;5054893;28;20078;-67
2023/08/09 02:02:44;;;;;;;2.78;1.80;;;16.60;83.10;;;;;;5043817;28;20056;-64
2023/08/09 02:05:10;;;;;;;2.42;1.73;;;16.60;83.20;;;;;;5048898;28;20028;-64
2023/08/09 02:07:36;;;;;;;4.55;2.67;;;16.60;83.30;;;;;;5046046;28;20053;-63
2023/08/09 02:10:02;;;;;;;2.95;2.28;;;16.60;83.30;;;;;;5052375;28;20445;-68
2023/08/09 02:12:28;;;;;;;2.92;1.92;;;16.60;83.50;;;;;;5047175;28;20051;-68
2023/08/09 02:14:55;;;;;;;2.50;1.80;;;16.60;83.60;;;;;;5050516;28;20487;-64
2023/08/09 02:17:21;;;;;;;2.10;1.42;;;16.60;83.60;;;;;;5050876;28;20119;-68
2023/08/09 02:19:47;;;;;;;2.05;1.75;;;16.60;83.40;;;;;;5054442;28;20031;-68
2023/08/09 02:22:15;;;;;;;2.42;1.60;;;16.70;83.40;;;;;;5035204;28;20446;-67
2023/08/09 02:24:41;;;;;;;2.17;1.98;;;16.70;83.40;;;;;;5048394;28;20033;-64
2023/08/09 02:27:06;;;;;;;3.45;2.58;;;16.70;83.60;;;;;;5046284;28;20028;-64
2023/08/09 02:29:32;;;;;;;2.50;1.35;;;16.70;83.60;;;;;;5053119;28;20040;-68
2023/08/09 02:31:58;;;;;;;2.80;1.17;;;16.70;84.10;;;;;;5044745;28;20056;-64
2023/08/09 02:34:24;;;;;;;3.22;2.17;;;16.70;83.40;;;;;;5040346;28;20034;-63
2023/08/09 02:36:50;;;;;;;2.95;2.10;;;16.70;83.40;;;;;;5043228;28;20051;-67
2023/08/09 02:39:15;;;;;;;3.03;1.80;;;16.70;83.40;;;;;;5041984;28;20028;-68
2023/08/09 02:41:42;;;;;;;3.70;1.27;;;16.70;83.50;;;;;;5045392;28;20032;-67
2023/08/09 02:44:08;;;;;;;3.15;2.25;;;16.70;83.50;;;;;;5048126;28;20068;-63
2023/08/09 02:46:34;;;;;;;1.98;1.48;;;16.70;83.70;;;;;;5056018;28;20029;-64
2023/08/09 02:48:59;;;;;;;2.20;1.65;;;16.70;83.80;;;;;;5043845;28;20037;-64
2023/08/09 02:51:25;;;;;;;2.50;1.45;;;16.70;83.80;;;;;;5048428;28;20112;-67
2023/08/09 02:53:58;;;;;;;4.78;2.70;;;16.70;83.80;;;;;;5044100;28;20376;-64
2023/08/09 02:56:24;;;;;;;4.10;1.92;;;16.70;83.80;;;;;;5045263;28;20532;-64
2023/08/09 02:58:49;;;;;;;2.42;1.83;;;16.70;83.70;;;;;;5047896;28;20263;-63
2023/08/09 03:01:15;;;;;;;5.18;2.50;;;16.70;83.90;;;;;;5044876;28;20041;-68
2023/08/09 03:03:41;;;;;;;4.15;2.65;;;16.60;84.10;;;;;;5042362;28;20029;-67
2023/08/09 03:06:07;;;;;;;2.40;1.80;;;16.60;84.20;;;;;;5036699;28;20727;-67
2023/08/09 03:08:32;;;;;;;3.03;1.73;;;16.60;84.30;;;;;;5049147;28;20033;-63
2023/08/09 03:10:58;;;;;;;2.95;1.75;;;16.50;84.50;;;;;;5046085;28;20437;-68
2023/08/09 03:13:24;;;;;;;3.25;2.10;;;16.50;84.60;;;;;;5032111;28;20033;-64
2023/08/09 03:15:50;;;;;;;2.08;1.30;;;16.50;84.70;;;;;;5041524;28;20060;-68
2023/08/09 03:18:16;;;;;;;1.60;1.05;;;16.60;84.60;;;;;;5043899;28;20442;-68
2023/08/09 03:20:42;;;;;;;2.95;1.67;;;16.60;84.50;;;;;;5046850;28;20551;-67
2023/08/09 03:23:09;;;;;;;5.72;2.15;;;16.60;84.20;;;;;;5053235;28;20029;-68
2023/08/09 03:25:36;;;;;;;2.45;1.38;;;16.70;84.20;;;;;;5049915;28;20466;-67
2023/08/09 03:28:02;;;;;;;3.08;2.03;;;16.70;84.10;;;;;;5051031;28;20060;-67
2023/08/09 03:30:28;;;;;;;4.63;2.33;;;16.70;84.00;;;;;;5048853;28;20036;-63
2023/08/09 03:32:54;;;;;;;5.03;1.33;;;16.70;84.10;;;;;;5047727;28;20037;-64
2023/08/09 03:35:20;;;;;;;2.28;1.35;;;16.70;84.10;;;;;;5038836;28;20092;-64
2023/08/09 03:37:45;;;;;;;3.40;1.75;;;16.80;84.10;;;;;;5041400;28;20032;-64
2023/08/09 03:40:12;;;;;;;2.33;1.70;;;16.80;84.10;;;;;;5044689;28;20554;-67
2023/08/09 03:42:42;;;;;;;2.95;1.90;;;16.70;84.10;;;;;;5047241;28;20029;-67
2023/08/09 03:45:08;;;;;;;2.42;1.65;;;16.80;84.20;;;;;;5055037;28;20399;-63
2023/08/09 03:47:35;;;;;;;2.63;1.67;;;16.70;84.30;;;;;;5051930;28;20024;-64
2023/08/09 03:50:01;;;;;;;2.22;1.42;;;16.80;84.40;;;;;;5043640;28;20217;-68
2023/08/09 03:52:26;;;;;;;4.68;1.48;;;16.80;84.40;;;;;;5046530;28;20033;-63
2023/08/09 03:54:52;;;;;;;3.47;1.67;;;16.80;84.30;;;;;;5046657;28;20032;-68
2023/08/09 03:57:21;;;;;;;3.25;1.92;;;16.80;84.30;;;;;;5052699;28;20037;-68
2023/08/09 03:59:47;;;;;;;3.65;2.38;;;16.80;84.20;;;;;;5053007;28;20164;-63
2023/08/09 04:02:13;;;;;;;3.13;1.83;;;16.80;84.30;;;;;;5039587;28;20056;-63
2023/08/09 04:04:39;;;;;;;7.38;2.22;;;16.70;84.40;;;;;;5041489;28;20115;-64
2023/08/09 04:07:06;;;;;;;2.20;1.30;;;16.70;84.60;;;;;;5037493;28;20094;-64
2023/08/09 04:09:32;;;;;;;4.95;2.10;;;16.70;84.70;;;;;;5040403;28;20317;-64
2023/08/09 04:11:59;;;;;;;3.25;1.83;;;16.70;84.70;;;;;;5041028;28;20407;-64
2023/08/09 04:14:25;;;;;;;1.63;1.38;;;16.80;84.70;;;;;;5036302;28;20537;-64
2023/08/09 04:16:51;;;;;;;1.98;1.48;;;16.80;84.60;;;;;;5050518;28;20430;-68
2023/08/09 04:19:17;;;;;;;3.05;1.52;;;16.80;84.60;;;;;;5034331;28;20034;-68
2023/08/09 04:21:43;;;;;;;2.75;1.27;;;16.80;84.60;;;;;;5038569;28;20276;-68
2023/08/09 04:24:12;;;;;;;1.90;1.35;;;16.90;84.60;;;;;;5039208;28;20045;-64
2023/08/09 04:26:38;;;;;;;2.08;1.52;;;16.90;84.60;;;;;;5046982;28;20032;-68
2023/08/09 04:29:04;;;;;;;2.80;1.83;;;16.90;84.60;;;;;;5049429;28;20024;-63
2023/08/09 04:31:30;;;;;;;1.58;1.10;;;16.80;84.50;;;;;;5047356;28;20025;-68
2023/08/09 04:33:55;;;;;;;2.03;1.15;;;16.80;84.70;;;;;;5035011;28;20036;-68
2023/08/09 04:36:21;;;;;;;1.85;1.30;;;16.80;84.70;;;;;;5041072;28;20505;-68
2023/08/09 04:38:47;;;;;;;1.23;1.10;;;16.80;84.70;;;;;;5037849;28;20025;-64
2023/08/09 04:41:13;;;;;;;3.20;2.00;;;16.80;84.70;;;;;;5038323;28;20120;-63
2023/08/09 04:43:43;;;;;;;2.72;1.55;;;16.80;84.80;;;;;;5039558;28;20396;-63
2023/08/09 04:46:12;;;;;;;2.95;1.75;;;16.80;84.90;;;;;;5041462;28;20029;-63
2023/08/09 04:48:39;;;;;;;2.00;1.13;;;16.70;85.00;;;;;;5041916;28;20144;-68
2023/08/09 04:51:05;;;;;;;2.58;1.45;;;16.70;85.00;;;;;;5040730;28;20107;-67
2023/08/09 04:53:31;;;;;;;2.00;1.75;;;16.70;85.00;;;;;;5038536;28;20540;-64
2023/08/09 04:55:57;;;;;;;2.17;1.35;;;16.70;85.10;;;;;;5046153;28;20107;-63
2023/08/09 04:58:22;;;;;;;2.30;1.60;;;16.70;85.00;;;;;;5039053;28;20424;-64
2023/08/09 05:00:48;;;;;;;5.45;1.80;;;16.80;85.00;;;;;;5043783;28;20108;-68
2023/08/09 05:03:14;;;;;;;2.15;1.27;;;16.70;84.80;;;;;;5044751;28;20132;-68
2023/08/09 05:05:40;;;;;;;3.20;1.77;;;16.80;85.50;;;;;;5032094;28;20049;-68
2023/08/09 05:08:05;;;;;;;2.50;1.65;;;16.80;85.10;;;;;;5048733;28;20028;-64
2023/08/09 05:10:31;;;;;;;1.65;1.20;;;16.80;85.00;;;;;;5041672;28;20108;-68
2023/08/09 05:12:57;;;;;;;2.42;2.03;;;16.80;85.00;;;;;;5039612;28;20545;-64
2023/08/09 05:15:23;;;;;;;3.20;2.08;;;16.90;85.00;;;;;;5048118;28;20033;-69
2023/08/09 05:17:48;;;;;;;2.63;1.73;;;16.90;84.90;;;;;;5049808;28;20424;-64
2023/08/09 05:20:15;;;;;;;2.92;1.30;;;16.90;85.00;;;;;;5055735;28;20029;-64
2023/08/09 05:22:41;;;;;;;3.17;1.67;;;16.80;85.00;;;;;;5041284;28;20505;-68
2023/08/09 05:25:07;;;;;;;1.70;1.30;;;16.80;85.10;;;;;;5045852;28;20036;-68
2023/08/09 05:27:33;;;;;;;4.30;1.55;;;16.90;85.00;;;;;;5036913;28;20030;-64
2023/08/09 05:29:59;;;;;;;3.80;2.28;;;16.90;84.90;;;;;;5034021;28;20366;-64
2023/08/09 05:32:24;;;;;;;3.67;1.70;;;17.00;84.90;;;;;;5041758;28;20038;-68
2023/08/09 05:34:50;;;;;;;2.22;1.63;;;17.00;84.80;;;;;;5041694;28;20052;-68
2023/08/09 05:37:16;;;;;;;4.15;1.45;;;17.00;84.90;;;;;;5037719;28;20048;-68
2023/08/09 05:39:41;;;;;;;4.10;2.33;;;17.00;84.80;;;;;;5041238;28;20379;-72
2023/08/09 05:42:07;;;;;;;4.68;2.08;;;17.00;84.80;;;;;;5042977;28;20116;-71
2023/08/09 05:44:34;;;;;;;3.55;2.53;;;17.00;84.80;;;;;;5047019;28;20733;-71
2023/08/09 05:47:00;;;;;;;3.88;2.00;;;17.10;84.90;;;;;;5052450;28;20032;-71
2023/08/09 05:49:26;;;;;;;3.63;2.35;;;17.10;84.90;;;;;;5043539;28;20029;-66
2023/08/09 05:51:54;;;;;;;2.63;2.22;;;17.10;84.90;;;;;;5044931;28;20171;-65
2023/08/09 05:54:20;;;;;;;3.15;2.00;;;17.20;84.90;;;;;;5052586;28;20037;-64
2023/08/09 05:56:46;;;;;;;5.82;2.50;;;17.20;84.70;;;;;;5053889;28;20036;-65
2023/08/09 05:59:11;;;;;;;3.60;2.42;;;17.30;84.70;;;;;;5051893;28;20045;-65
2023/08/09 06:01:37;;;;;;;6.07;2.78;;;17.30;84.80;;;;;;5052339;28;20071;-65
2023/08/09 06:04:03;;;;;;;3.97;2.70;;;17.30;84.70;;;;;;5045418;28;20021;-64
2023/08/09 06:06:29;;;;;;;4.82;2.58;;;17.40;84.70;;;;;;5047214;28;20106;-64
2023/08/09 06:08:55;;;;;;;5.47;4.30;;;17.40;84.70;;;;;;5048632;28;20032;-64
2023/08/09 06:11:21;;;;;;;4.65;3.55;;;17.40;84.70;;;;;;5043183;28;20029;-64
2023/08/09 06:13:46;;;;;;;6.88;3.53;;;17.30;84.70;;;;;;5042661;28;20132;-76
2023/08/09 06:16:12;;;;;;;6.00;2.90;;;17.30;84.80;;;;;;5053027;28;20029;-74
2023/08/09 06:18:38;;;;;;;5.85;3.40;;;17.30;84.90;;;;;;5036958;28;20049;-63
2023/08/09 06:21:04;;;;;;;5.95;3.38;;;17.30;84.90;;;;;;5043803;28;20492;-64
2023/08/09 06:23:30;;;;;;;4.03;2.80;;;17.30;85.00;;;;;;5042780;28;20492;-75
2023/08/09 06:25:56;;;;;;;4.75;3.22;;;17.30;85.00;;;;;;5044829;28;20021;-74
2023/08/09 06:28:22;;;;;;;6.85;3.33;;;17.30;85.60;;;;;;5043282;28;20037;-75
2023/08/09 06:30:48;;;;;;;5.70;3.60;;;17.30;85.10;;;;;;5059251;28;20142;-75
2023/08/09 06:33:14;;;;;;;4.20;2.67;;;17.40;85.10;;;;;;5042731;28;20025;-78
2023/08/09 06:35:39;;;;;;;5.35;2.60;;;17.40;85.10;;;;;;5047107;28;20037;-74
2023/08/09 06:38:05;;;;;;;5.55;2.42;;;17.40;85.10;;;;;;5032191;28;20551;-66
2023/08/09 06:40:31;;;;;;;5.88;2.83;;;17.40;85.10;;;;;;5042623;28;20026;-65
2023/08/09 06:42:56;;;;;;;4.05;2.78;;;17.40;85.10;;;;;;5049696;28;20040;-74
2023/08/09 06:45:22;;;;;;;6.07;3.30;;;17.40;85.10;;;;;;5031746;28;20060;-66
2023/08/09 06:47:48;;;;;;;4.35;2.15;;;17.40;85.10;;;;;;5036252;28;20113;-72
2023/08/09 06:50:14;;;;;;;3.58;2.15;;;17.50;85.00;;;;;;5043948;28;20025;-65
2023/08/09 06:52:40;;;;;;;3.53;2.42;;;17.50;85.00;;;;;;5042068;28;20033;-75
2023/08/09 06:55:07;;;;;;;4.07;2.10;;;17.60;85.00;;;;;;5068028;28;20041;-64
2023/08/09 06:57:34;;;;;;;4.30;2.17;;;17.70;84.80;;;;;;5044602;28;20025;-63
2023/08/09 07:00:00;;;;;;;5.10;2.63;;;17.80;84.60;;;;;;5054597;28;20090;-72
2023/08/09 07:02:26;;;;;;;2.25;1.30;;;17.80;84.50;;;;;;5050322;28;20040;-73
2023/08/09 07:04:54;;;;;;;2.35;1.50;;;17.80;84.60;;;;;;5052769;28;20025;-63
2023/08/09 07:07:23;;;;;;;3.17;1.67;;;17.90;84.60;;;;;;5045445;28;20041;-63
2023/08/09 07:09:49;;;;;;;2.35;1.63;;;18.00;84.40;;;;;;5043598;28;20054;-73
2023/08/09 07:12:15;;;;;;;4.45;1.80;;;18.10;84.20;;;;;;5053604;28;20102;-71
2023/08/09 07:14:40;;;;;;;1.85;1.30;;;18.10;84.00;;;;;;5050646;28;20068;-64
2023/08/09 07:17:07;;;;;;;2.25;1.55;;;18.20;83.90;;;;;;5048744;28;20032;-63
2023/08/09 07:19:33;;;;;;;2.17;1.35;;;18.10;83.90;;;;;;5047817;28;20111;-72
2023/08/09 07:21:58;;;;;;;2.03;1.20;;;18.20;83.90;;;;;;5040394;28;20128;-72
2023/08/09 07:24:24;;;;;;;2.17;1.10;;;18.30;83.90;;;;;;5043222;28;20451;-64
2023/08/09 07:26:49;;;;;;;4.05;1.67;;;18.30;83.60;;;;;;5049223;28;20040;-63
2023/08/09 07:29:15;;;;;;;4.07;1.88;;;18.40;83.60;;;;;;5043484;28;20025;-64
2023/08/09 07:31:41;;;;;;;2.25;1.20;;;18.40;83.50;;;;;;5038515;28;20388;-64
2023/08/09 07:34:06;;;;;;;4.15;1.75;;;18.40;83.50;;;;;;5036314;28;20508;-64
2023/08/09 07:36:32;;;;;;;2.47;1.67;;;18.40;83.70;;;;;;5048621;28;20061;-72
2023/08/09 07:38:58;;;;;;;3.33;1.60;;;18.40;83.60;;;;;;5036805;28;20025;-72
2023/08/09 07:41:25;;;;;;;2.75;1.50;;;18.40;83.40;;;;;;5051287;28;20402;-72
2023/08/09 07:43:50;;;;;;;2.90;1.73;;;18.40;83.30;;;;;;5036993;28;20037;-64
2023/08/09 07:46:16;;;;;;;3.55;1.75;;;18.40;83.40;;;;;;5045859;28;20033;-64
2023/08/09 07:48:42;;;;;;;3.38;2.20;;;18.50;83.30;;;;;;5042174;28;20083;-72
2023/08/09 07:51:13;;;;;;;3.30;1.92;;;18.50;83.40;;;;;;5045407;28;20036;-62
2023/08/09 07:53:39;;;;;;;4.35;3.00;;;18.60;83.30;;;;;;5042350;28;20024;-62
2023/08/09 07:56:05;;;;;;;3.17;2.05;;;18.60;83.10;;;;;;5041907;28;20056;-71
2023/08/09 07:58:31;;;;;;;3.47;2.13;;;18.70;83.20;;;;;;5037710;28;20514;-72
2023/08/09 08:00:56;;;;;;;1.88;1.73;;;18.70;83.00;;;;;;5049710;28;20032;-62
2023/08/09 08:03:22;;;;;;;4.10;1.90;;;18.80;82.90;;;;;;5045102;28;20114;-62
2023/08/09 08:05:48;;;;;;;2.75;1.33;;;18.90;82.60;;;;;;5042653;28;20021;-62
2023/08/09 08:08:14;;;;;;;1.73;1.63;;;18.90;82.60;;;;;;5048279;28;20029;-72
2023/08/09 08:10:41;;;;;;;2.50;1.65;;;18.90;82.40;;;;;;5046042;28;20049;-71
2023/08/09 08:13:07;;;;;;;4.63;1.88;;;18.90;82.50;;;;;;5042219;28;20118;-64
2023/08/09 08:15:32;;;;;;;3.20;2.22;;;19.00;82.50;;;;;;5048123;28;20440;-64
2023/08/09 08:17:58;;;;;;;3.58;2.05;;;19.10;82.40;;;;;;5036166;28;20135;-64
2023/08/09 08:20:24;;;;;;;4.38;2.35;;;19.20;82.10;;;;;;5033111;28;20025;-63
2023/08/09 08:22:50;;;;;;;1.95;1.63;;;19.20;82.00;;;;;;5036978;28;20029;-62
2023/08/09 08:25:19;;;;;;;2.65;1.60;;;19.20;82.10;;;;;;5039559;28;20401;-64
2023/08/09 08:27:46;;;;;;;2.35;2.03;;;19.20;82.00;;;;;;5032719;28;20029;-64
2023/08/09 08:30:17;;;;;;;1.73;1.38;;;19.20;81.90;;;;;;5038466;28;20120;-64
2023/08/09 08:32:47;;;;;;;2.23;1.80;;;19.20;82.50;;;;;;5049047;28;20112;-64
2023/08/09 08:35:13;;;;;;;2.78;1.38;;;19.20;82.00;;;;;;5044846;28;20039;-64
2023/08/09 08:37:41;;;;;;;3.60;1.48;;;19.30;81.80;;;;;;5035553;28;20033;-64
2023/08/09 08:40:17;;;;;;;4.07;2.28;;;19.30;81.70;;;;;;5047650;28;20502;-64
2023/08/09 08:42:47;;;;;;;4.80;2.80;;;19.30;81.40;;;;;;5043169;28;20049;-64
2023/08/09 08:45:15;;;;;;;3.67;2.15;;;19.30;81.50;;;;;;5040770;28;20557;-64
2023/08/09 08:47:42;;;;;;;3.42;2.58;;;19.30;81.30;;;;;;5038362;28;20033;-64
2023/08/09 08:50:09;;;;;;;3.03;2.00;;;19.20;81.20;;;;;;5040220;28;20029;-64
2023/08/09 08:52:38;;;;;;;2.88;2.08;;;19.30;81.30;;;;;;5034475;28;20029;-64
2023/08/09 08:55:10;;;;;;;1.73;1.45;;;19.40;80.50;;;;;;5039369;28;20038;-64
2023/08/09 08:57:40;;;;;;;2.35;1.60;;;19.60;80.60;;;;;;5043905;28;20037;-73
2023/08/09 09:00:15;;;;;;;3.13;2.00;;;19.80;80.00;;;;;;5038354;28;20124;-73
2023/08/09 09:02:42;;;;;;;2.65;1.83;;;20.00;79.60;;;;;;5034339;28;20024;-73
2023/08/09 09:05:09;;;;;;;2.55;1.42;;;20.20;79.60;;;;;;5046713;28;20526;-73
2023/08/09 09:07:36;;;;;;;1.50;1.10;;;20.30;79.00;;;;;;5051764;28;20053;-73
2023/08/09 09:10:06;;;;;;;1.20;0.90;;;20.50;78.90;;;;;;5050996;28;20021;-73
2023/08/09 09:12:37;;;;;;;1.55;1.13;;;20.70;78.60;;;;;;5053028;28;20061;-73
2023/08/09 09:15:04;;;;;;;1.20;1.08;;;20.80;77.30;;;;;;5050600;28;20475;-73
2023/08/09 09:17:36;;;;;;;1.23;1.00;;;20.90;76.90;;;;;;5050739;28;20041;-73
2023/08/09 09:20:02;;;;;;;1.23;1.13;;;20.90;76.80;;;;;;5059811;28;20021;-73
2023/08/09 09:22:31;;;;;;;1.27;0.90;;;20.90;77.10;;;;;;5047191;28;20060;-64
2023/08/09 09:24:58;;;;;;;0.70;0.70;;;20.80;76.60;;;;;;5052254;28;20533;-64
2023/08/09 09:27:28;;;;;;;1.60;1.38;;;20.90;76.90;;;;;;5041803;28;20116;-64
2023/08/09 09:29:54;;;;;;;4.95;1.40;;;21.10;74.80;;;;;;5043233;28;20385;-65
2023/08/09 09:32:20;;;;;;;1.50;1.15;;;21.00;73.90;;;;;;5044997;28;20493;-64
2023/08/09 09:34:48;;;;;;;2.15;1.20;;;21.10;74.50;;;;;;5044797;28;20025;-64
2023/08/09 09:37:25;;;;;;;3.58;1.40;;;21.20;74.40;;;;;;5044210;28;20116;-64
2023/08/09 09:39:52;;;;;;;1.02;0.82;;;21.30;73.90;;;;;;5049156;28;20028;-73
2023/08/09 09:42:28;;;;;;;1.33;1.00;;;21.40;73.80;;;;;;5048239;28;20431;-64
2023/08/09 09:45:01;;;;;;;0.95;0.95;;;21.50;73.90;;;;;;5045563;28;20021;-64
2023/08/09 09:47:28;;;;;;;0.98;0.88;;;21.60;73.70;;;;;;5042896;28;20032;-64
2023/08/09 09:49:53;;;;;;;0.80;0.80;;;21.70;73.20;;;;;;5042437;28;20033;-64
2023/08/09 09:52:20;;;;;;;1.10;1.00;;;21.70;73.20;;;;;;5050445;28;20154;-64
2023/08/09 09:54:46;;;;;;;0.80;0.80;;;21.60;72.30;;;;;;5047615;28;20041;-64
2023/08/09 09:57:12;;;;;;;0.60;0.60;;;21.60;72.70;;;;;;5040637;28;20120;-64
2023/08/09 09:59:38;;;;;;;1.65;0.80;;;21.50;73.00;;;;;;5031729;28;20106;-64
2023/08/09 10:02:05;;;;;;;1.33;0.90;;;21.60;73.00;;;;;;5047202;28;20024;-73
2023/08/09 10:04:31;;;;;;;0.85;0.75;;;21.50;72.90;;;;;;5046997;28;20044;-72
2023/08/09 10:06:57;;;;;;;0.60;0.60;;;21.40;72.60;;;;;;5047647;28;20045;-73
2023/08/09 10:09:24;;;;;;;0.82;0.65;;;21.50;72.90;;;;;;5046719;28;20040;-63
2023/08/09 10:11:51;;;;;;;1.20;0.70;;;21.60;72.90;;;;;;5039822;28;20610;-63
2023/08/09 10:14:18;;;;;;;1.20;0.90;;;21.70;72.50;;;;;;5039118;28;20021;-63
2023/08/09 10:16:47;;;;;;;1.15;1.05;;;21.80;72.40;;;;;;5041233;28;20086;-63
2023/08/09 10:19:18;;;;;;;2.45;0.82;;;21.80;72.30;;;;;;5037710;28;20037;-72
2023/08/09 10:21:44;;;;;;;0.80;0.80;;;21.80;72.40;;;;;;5045182;28;20025;-72
2023/08/09 10:24:17;;;;;;;0.63;0.63;;;21.70;72.30;;;;;;5043178;28;20388;-72
2023/08/09 10:26:46;;;;;;;2.10;1.25;;;21.70;72.40;;;;;;5044341;28;20021;-72
2023/08/09 10:29:13;;;;;;;0.90;0.90;;;21.60;72.50;;;;;;5045068;28;20108;-72
2023/08/09 10:31:47;;;;;;;0.73;0.70;;;21.40;72.70;;;;;;5044241;28;20052;-72
2023/08/09 10:34:14;;;;;;;0.80;0.80;;;21.40;73.20;;;;;;5040936;28;20407;-72
2023/08/09 10:36:40;;;;;;;1.15;0.70;;;21.30;73.30;;;;;;5042694;28;20036;-72
2023/08/09 10:39:14;;;;;;;2.67;0.80;;;21.10;73.60;;;;;;5043310;28;20037;-72
2023/08/09 10:42:06;;;;;;;0.63;0.63;;;21.10;73.70;;;;;;5046117;28;20375;-72
2023/08/09 10:44:49;;;;;;;0.73;0.50;;;21.00;73.90;;;;;;5044832;28;20091;-72
2023/08/09 10:47:20;;;;;;;3.67;0.85;;;21.00;74.30;;;;;;5040170;28;20031;-72
2023/08/09 10:49:48;;;;;;;1.17;1.05;;;21.00;74.10;;;;;;5045422;28;20096;-73
2023/08/09 10:52:35;;;;;;;1.00;0.90;;;20.90;73.40;;;;;;5041204;28;20021;-72
2023/08/09 10:55:19;;;;;;;1.02;0.93;;;20.90;73.10;;;;;;5041373;28;20045;-73
2023/08/09 10:57:48;;;;;;;0.60;0.60;;;21.00;72.40;;;;;;5050409;28;20024;-73
2023/08/09 11:00:14;;;;;;;0.70;0.70;;;21.10;72.50;;;;;;5047710;28;20459;-72
2023/08/09 11:02:55;;;;;;;1.10;0.93;;;21.30;71.70;;;;;;5049949;28;20675;-72
2023/08/09 11:05:22;;;;;;;2.63;0.70;;;21.40;69.70;;;;;;5051874;28;20475;-63
2023/08/09 11:07:53;;;;;;;1.15;0.73;;;21.50;69.30;;;;;;5060109;28;20051;-63
2023/08/09 11:10:40;;;;;;;1.15;1.05;;;21.60;69.60;;;;;;5045232;28;20034;-63
2023/08/09 11:13:08;;;;;;;0.95;0.80;;;21.60;68.70;;;;;;5045593;28;20316;-72
2023/08/09 11:15:35;;;;;;;1.20;1.10;;;21.60;69.00;;;;;;5051832;28;20045;-72
2023/08/09 11:18:01;;;;;;;1.65;0.93;;;21.60;69.10;;;;;;5033191;28;20051;-64
2023/08/09 11:20:27;;;;;;;1.27;1.15;;;21.70;69.30;;;;;;5047416;28;20091;-63
2023/08/09 11:22:56;;;;;;;1.10;1.00;;;21.80;69.50;;;;;;5043544;28;20029;-63
2023/08/09 11:25:24;;;;;;;1.67;0.80;;;21.90;69.70;;;;;;5044646;28;20091;-63
2023/08/09 11:27:52;;;;;;;7.85;1.65;;;21.70;70.00;;;;;;5044394;28;20090;-63
2023/08/09 11:30:18;;;;;;;1.38;1.27;;;21.70;70.10;;;;;;5046509;28;20107;-63
2023/08/09 11:32:43;;;;;;;1.13;0.88;;;21.60;70.00;;;;;;5045012;28;20132;-64
2023/08/09 11:35:09;;;;;;;1.33;1.23;;;21.50;70.30;;;;;;5047765;28;20041;-63
2023/08/09 11:37:35;;;;;;;1.58;1.40;;;21.50;70.80;;;;;;5046353;28;20446;-63
2023/08/09 11:40:01;;;;;;;1.30;1.20;;;21.60;71.00;;;;;;5027823;28;20030;-64
2023/08/09 11:42:26;;;;;;;1.38;1.20;;;21.70;70.70;;;;;;5036563;28;20484;-64
2023/08/09 11:44:52;;;;;;;1.20;1.05;;;21.90;70.70;;;;;;5044723;28;20029;-64
2023/08/09 11:47:18;;;;;;;1.10;1.00;;;22.00;70.00;;;;;;5037419;28;20025;-63
2023/08/09 11:49:43;;;;;;;2.10;1.38;;;22.10;70.10;;;;;;5042065;28;20377;-63
2023/08/09 11:52:16;;;;;;;1.58;0.98;;;22.30;70.10;;;;;;5042812;28;20023;-64
2023/08/09 11:54:42;;;;;;;2.00;1.10;;;22.30;70.10;;;;;;5036014;28;20033;-72
2023/08/09 11:57:08;;;;;;;1.58;1.48;;;22.40;69.60;;;;;;5030968;28;20500;-72
2023/08/09 11:59:38;;;;;;;1.52;1.25;;;22.60;68.60;;;;;;5016394;28;20044;-72
2023/08/09 12:02:06;;;;;;;1.00;0.95;;;22.80;68.50;;;;;;5029329;28;20043;-72
2023/08/09 12:04:32;;;;;;;1.45;1.27;;;23.20;68.20;;;;;;5045013;28;20511;-72
2023/08/09 12:07:00;;;;;;;2.75;1.13;;;23.40;66.70;;;;;;5037622;28;20044;-73
2023/08/09 12:09:32;;;;;;;1.17;1.08;;;23.50;66.80;;;;;;5044383;28;20068;-63
2023/08/09 12:12:17;;;;;;;;;;;23.70;66.20;;;;;;5050759;28;20034;-63
2023/08/09 12:14:45;;;;;;;2.28;1.00;;;24.10;64.40;;;;;;5041126;28;20015;-64
2023/08/09 12:17:30;;;;;;;3.35;1.40;;;24.40;63.60;;;;;;5044031;28;20037;-64
2023/08/09 12:20:01;;;;;;;1.60;1.50;;;24.20;62.20;;;;;;5034232;28;20123;-64
2023/08/09 12:22:28;;;;;;;1.30;1.20;;;23.90;63.40;;;;;;5039107;28;20044;-64
2023/08/09 12:24:54;;;;;;;0.75;0.75;;;23.60;62.60;;;;;;5035646;28;20096;-73
2023/08/09 12:27:20;;;;;;;1.30;0.80;;;23.50;63.80;;;;;;5037137;28;20025;-73
2023/08/09 12:29:46;;;;;;;0.90;0.70;;;23.70;63.60;;;;;;5046906;28;20573;-72
2023/08/09 12:32:13;;;;;;;4.47;0.88;;;23.90;61.50;;;;;;5035579;28;20037;-72
2023/08/09 12:34:38;;;;;;;1.08;0.98;;;23.90;61.70;;;;;;5042116;28;20506;-73
2023/08/09 12:37:05;;;;;;;2.95;1.02;;;24.10;61.70;;;;;;5043227;28;20040;-73
2023/08/09 12:39:31;;;;;;;3.33;1.02;;;24.20;61.50;;;;;;5046628;28;20044;-72
2023/08/09 12:41:57;;;;;;;0.70;0.70;;;24.10;62.00;;;;;;5045906;28;20041;-64
2023/08/09 12:44:24;;;;;;;1.38;1.10;;;24.00;61.60;;;;;;5040614;28;20079;-63
2023/08/09 12:46:49;;;;;;;1.20;1.10;;;23.80;62.00;;;;;;5037146;28;20539;-72
2023/08/09 12:49:15;;;;;;;2.00;1.27;;;23.60;62.50;;;;;;5036883;28;20029;-63